Time;durP1;ratioP1;P1;durP2;ratioP2;P2;SDS_P1;SDS_P2;PMS_P1;PMS_P2;Temp;Humidity;BMP_temperature;BMP_pressure;BME280_temperature;BME280_humidity;BME280_pressure;Samples;Min_cycle;Max_cycle;Signal;HPM_P1;HPM_P2
2023/06/01 00:01:41;;;;;;;4.15;2.50;;;;;;;;;;5028148;28;20014;-75
2023/06/01 00:04:09;;;;;;;4.25;2.78;;;;;;;;;;5013637;28;20034;-75
2023/06/01 00:06:35;;;;;;;11.00;2.42;;;;;;;;;;5028538;28;20033;-76
2023/06/01 00:09:02;;;;;;;3.92;2.65;;;;;;;;;;5027927;28;20022;-75
2023/06/01 00:11:28;;;;;;;3.55;2.10;;;;;;;;;;5011518;28;20117;-75
2023/06/01 00:13:54;;;;;;;3.90;2.47;;;;;;;;;;5010964;28;20137;-76
2023/06/01 00:16:19;;;;;;;7.32;2.50;;;;;;;;;;5026515;28;20057;-75
2023/06/01 00:18:45;;;;;;;4.30;2.00;;;;;;;;;;5026867;28;20060;-75
2023/06/01 00:21:11;;;;;;;3.50;2.28;;;;;;;;;;5027289;28;20028;-75
2023/06/01 00:23:40;;;;;;;11.93;2.65;;;;;;;;;;5012365;28;20079;-75
2023/06/01 00:26:08;;;;;;;4.20;2.08;;;;;;;;;;5011168;28;20083;-75
2023/06/01 00:28:34;;;;;;;4.00;2.63;;;;;;;;;;5012382;28;20029;-74
2023/06/01 00:31:00;;;;;;;5.53;2.38;;;;;;;;;;5026920;28;20034;-75
2023/06/01 00:33:26;;;;;;;8.07;2.20;;;;;;;;;;5011437;28;20160;-74
2023/06/01 00:35:51;;;;;;;4.07;2.40;;;;;;;;;;5010886;28;20555;-75
2023/06/01 00:38:17;;;;;;;4.15;1.95;;;;;;;;;;5025938;28;20036;-74
2023/06/01 00:40:49;;;;;;;6.50;2.20;;;;;;;;;;5026085;28;20032;-76
2023/06/01 00:43:15;;;;;;;3.92;2.33;;;;;;;;;;5011075;28;20045;-75
2023/06/01 00:45:41;;;;;;;6.68;1.92;;;;;;;;;;5025945;28;20423;-75
2023/06/01 00:48:06;;;;;;;5.90;2.25;;;;;;;;;;5009423;28;20661;-74
2023/06/01 00:50:32;;;;;;;3.78;2.25;;;;;;;;;;5009151;28;20022;-76
2023/06/01 00:53:00;;;;;;;6.95;2.80;;;;;;;;;;5025883;28;20030;-75
2023/06/01 00:55:26;;;;;;;7.43;2.42;;;;;;;;;;4992983;28;20053;-76
2023/06/01 00:57:54;;;;;;;5.43;2.28;;;;;;;;;;5010854;28;20037;-76
2023/06/01 01:00:20;;;;;;;3.80;2.10;;;;;;;;;;5010670;28;20685;-74
2023/06/01 01:02:48;;;;;;;5.65;2.17;;;;;;;;;;5010979;28;20117;-76
2023/06/01 01:05:15;;;;;;;3.20;2.35;;;;;;;;;;5009521;28;20037;-75
2023/06/01 01:07:47;;;;;;;8.13;2.88;;;;;;;;;;5010929;28;20026;-76
2023/06/01 01:10:34;;;;;;;4.68;2.72;;;;;;;;;;5010997;28;20022;-76
2023/06/01 01:13:20;;;;;;;4.90;2.47;;;;;;;;;;5011171;28;20045;-77
2023/06/01 01:16:07;;;;;;;3.53;2.60;;;;;;;;;;5026099;28;20061;-75
2023/06/01 01:18:42;;;;;;;2.72;2.45;;;;;;;;;;5000819;28;20081;-75
2023/06/01 01:24:23;;;;;;;6.15;2.67;;;;;;;;;;5010431;28;20601;-75
2023/06/01 01:27:29;;;;;;;3.67;2.53;;;;;;;;;;5010363;28;20461;-76
2023/06/01 01:30:04;;;;;;;3.47;2.17;;;;;;;;;;5007137;28;20049;-76
2023/06/01 01:32:29;;;;;;;5.95;2.85;;;;;;;;;;5025189;28;20030;-75
2023/06/01 01:34:56;;;;;;;7.78;3.13;;;;;;;;;;5025624;28;20356;-75
2023/06/01 01:37:22;;;;;;;6.30;2.95;;;;;;;;;;5010063;28;20104;-74
2023/06/01 01:39:47;;;;;;;5.43;3.05;;;;;;;;;;5008580;28;20706;-74
2023/06/01 01:42:13;;;;;;;3.60;2.30;;;;;;;;;;5025057;28;20052;-76
2023/06/01 01:44:38;;;;;;;2.92;2.22;;;;;;;;;;5010089;28;20517;-75
2023/06/01 01:47:20;;;;;;;3.20;2.30;;;;;;;;;;5025169;28;20081;-75
2023/06/01 01:49:51;;;;;;;4.75;2.40;;;;;;;;;;5025031;28;20028;-75
2023/06/01 01:52:31;;;;;;;5.28;3.00;;;;;;;;;;5025473;28;20129;-75
2023/06/01 01:55:00;;;;;;;3.53;2.55;;;;;;;;;;5008656;28;20061;-75
2023/06/01 01:57:29;;;;;;;6.38;2.42;;;;;;;;;;5008375;28;20049;-76
2023/06/01 01:59:55;;;;;;;5.57;2.70;;;;;;;;;;5010016;28;20030;-76
2023/06/01 02:02:22;;;;;;;10.55;2.80;;;;;;;;;;5009627;28;20419;-75
2023/06/01 02:04:47;;;;;;;6.07;2.78;;;;;;;;;;5010184;28;20030;-74
2023/06/01 02:07:13;;;;;;;5.28;2.70;;;;;;;;;;5025731;28;20143;-75
2023/06/01 02:09:39;;;;;;;4.55;2.92;;;;;;;;;;5010839;28;20036;-75
2023/06/01 02:12:06;;;;;;;4.35;2.58;;;;;;;;;;5008887;28;20038;-75
2023/06/01 02:14:31;;;;;;;3.47;2.45;;;;;;;;;;5008903;28;20021;-75
2023/06/01 02:16:57;;;;;;;5.22;3.03;;;;;;;;;;5008824;28;20034;-75
2023/06/01 02:19:23;;;;;;;5.93;2.30;;;;;;;;;;5009792;28;20350;-74
2023/06/01 02:21:48;;;;;;;5.97;2.80;;;;;;;;;;5009786;28;20104;-75
2023/06/01 02:24:14;;;;;;;4.85;2.60;;;;;;;;;;5024740;28;20161;-75
2023/06/01 02:26:40;;;;;;;4.80;2.55;;;;;;;;;;5024788;28;20076;-75
2023/06/01 02:29:05;;;;;;;3.22;2.40;;;;;;;;;;5009935;28;20575;-75
2023/06/01 02:31:32;;;;;;;3.45;2.53;;;;;;;;;;5009616;28;20049;-74
2023/06/01 02:33:59;;;;;;;4.75;2.72;;;;;;;;;;5009052;28;20067;-74
2023/06/01 02:36:26;;;;;;;5.70;2.50;;;;;;;;;;5029011;28;20064;-74
2023/06/01 02:38:51;;;;;;;7.00;3.08;;;;;;;;;;5028720;28;20041;-75
2023/06/01 02:41:17;;;;;;;7.00;2.72;;;;;;;;;;5013490;28;20025;-76
2023/06/01 02:43:42;;;;;;;8.63;4.18;;;;;;;;;;5028263;28;20442;-74
2023/06/01 02:46:08;;;;;;;4.82;2.67;;;;;;;;;;5028613;28;20044;-75
2023/06/01 02:48:33;;;;;;;10.80;3.30;;;;;;;;;;5028258;28;20038;-74
2023/06/01 02:50:59;;;;;;;4.03;2.70;;;;;;;;;;5011929;28;20044;-75
2023/06/01 02:53:28;;;;;;;7.47;2.70;;;;;;;;;;5028216;28;20064;-75
2023/06/01 02:55:53;;;;;;;5.00;2.80;;;;;;;;;;5013361;28;20041;-75
2023/06/01 02:58:20;;;;;;;4.53;2.80;;;;;;;;;;5028911;28;20525;-74
2023/06/01 03:00:46;;;;;;;7.78;2.88;;;;;;;;;;5028404;28;20025;-74
2023/06/01 03:03:12;;;;;;;5.68;2.90;;;;;;;;;;5011515;28;20096;-74
2023/06/01 03:05:38;;;;;;;5.00;2.42;;;;;;;;;;5011106;28;20033;-75
2023/06/01 03:08:08;;;;;;;7.93;3.47;;;;;;;;;;5012058;28;20030;-76
2023/06/01 03:10:33;;;;;;;6.88;2.75;;;;;;;;;;5027714;28;20026;-75
2023/06/01 03:12:59;;;;;;;5.40;2.63;;;;;;;;;;5012901;28;20032;-75
2023/06/01 03:15:25;;;;;;;8.90;3.10;;;;;;;;;;5012299;28;20033;-76
2023/06/01 03:17:50;;;;;;;7.40;3.55;;;;;;;;;;5013278;28;20339;-76
2023/06/01 03:20:16;;;;;;;10.93;4.05;;;;;;;;;;5012121;28;20512;-76
2023/06/01 03:22:45;;;;;;;7.35;3.70;;;;;;;;;;5011776;28;20088;-76
2023/06/01 03:25:12;;;;;;;7.72;3.03;;;;;;;;;;5027865;28;20029;-76
2023/06/01 03:27:41;;;;;;;4.00;2.45;;;;;;;;;;5027690;28;20053;-76
2023/06/01 03:30:11;;;;;;;6.32;3.15;;;;;;;;;;5027945;28;20026;-76
2023/06/01 03:32:38;;;;;;;3.90;2.63;;;;;;;;;;5012721;28;20116;-76
2023/06/01 03:35:06;;;;;;;4.10;2.83;;;;;;;;;;5012626;28;20145;-76
2023/06/01 03:37:32;;;;;;;7.28;2.67;;;;;;;;;;5027924;28;20373;-76
2023/06/01 03:39:57;;;;;;;7.25;2.83;;;;;;;;;;5027957;28;20026;-76
2023/06/01 03:42:23;;;;;;;7.07;3.03;;;;;;;;;;5011902;28;20075;-76
2023/06/01 03:44:48;;;;;;;5.20;2.80;;;;;;;;;;5014408;28;20033;-76
2023/06/01 03:47:14;;;;;;;4.63;2.63;;;;;;;;;;5014161;28;20149;-74
2023/06/01 03:49:40;;;;;;;6.05;3.22;;;;;;;;;;5026966;28;20040;-75
2023/06/01 03:52:06;;;;;;;5.25;3.20;;;;;;;;;;5039461;28;20029;-75
2023/06/01 03:54:31;;;;;;;7.95;3.30;;;;;;;;;;5020103;28;20688;-74
2023/06/01 03:56:57;;;;;;;6.65;3.17;;;;;;;;;;5012434;28;20075;-75
2023/06/01 03:59:23;;;;;;;6.30;3.30;;;;;;;;;;5013589;28;20060;-74
2023/06/01 04:01:49;;;;;;;8.15;3.30;;;;;;;;;;5027903;28;20061;-75
2023/06/01 04:04:16;;;;;;;6.80;3.15;;;;;;;;;;5011156;28;20030;-75
2023/06/01 04:06:45;;;;;;;4.20;2.72;;;;;;;;;;5011804;28;20109;-75
2023/06/01 04:09:11;;;;;;;9.15;3.30;;;;;;;;;;5012141;28;20382;-76
2023/06/01 04:11:39;;;;;;;5.28;3.00;;;;;;;;;;5010465;28;20030;-75
2023/06/01 04:14:05;;;;;;;5.75;2.97;;;;;;;;;;5011651;28;20017;-75
2023/06/01 04:16:30;;;;;;;5.40;3.38;;;;;;;;;;5011322;28;20097;-75
2023/06/01 04:18:56;;;;;;;9.73;3.40;;;;;;;;;;5026131;28;20084;-75
2023/06/01 04:21:23;;;;;;;6.93;3.47;;;;;;;;;;5026262;28;20083;-75
2023/06/01 04:23:49;;;;;;;5.18;3.15;;;;;;;;;;5011683;28;20421;-75
2023/06/01 04:26:15;;;;;;;5.00;2.90;;;;;;;;;;5010457;28;20113;-76
2023/06/01 04:28:43;;;;;;;8.57;3.70;;;;;;;;;;4993573;28;20045;-76
2023/06/01 04:31:16;;;;;;;6.78;3.13;;;;;;;;;;5026349;28;20052;-75
2023/06/01 04:33:52;;;;;;;6.45;3.60;;;;;;;;;;5015441;28;20034;-75
2023/06/01 04:36:21;;;;;;;4.07;3.00;;;;;;;;;;4995571;28;20545;-75
2023/06/01 04:38:51;;;;;;;7.03;3.22;;;;;;;;;;5009626;28;20483;-75
2023/06/01 04:41:17;;;;;;;5.43;2.88;;;;;;;;;;5025287;28;20039;-75
2023/06/01 04:43:43;;;;;;;9.25;3.55;;;;;;;;;;5011222;28;20061;-75
2023/06/01 04:46:08;;;;;;;6.60;3.78;;;;;;;;;;4990541;28;20066;-77
2023/06/01 04:48:36;;;;;;;8.57;3.53;;;;;;;;;;4990357;28;20504;-75
2023/06/01 04:51:03;;;;;;;6.80;2.97;;;;;;;;;;4992360;28;20101;-75
2023/06/01 04:53:29;;;;;;;7.47;2.97;;;;;;;;;;4992198;28;20027;-74
2023/06/01 04:55:56;;;;;;;6.90;3.63;;;;;;;;;;4992223;28;20108;-75
2023/06/01 04:58:22;;;;;;;9.63;3.00;;;;;;;;;;4994914;28;20053;-76
2023/06/01 05:00:47;;;;;;;5.32;2.92;;;;;;;;;;4994197;28;20065;-75
2023/06/01 05:03:13;;;;;;;4.18;3.00;;;;;;;;;;4994618;28;20534;-76
2023/06/01 05:05:39;;;;;;;5.78;3.65;;;;;;;;;;5003332;28;20041;-75
2023/06/01 05:08:17;;;;;;;9.20;4.15;;;;;;;;;;5007512;28;20022;-74
2023/06/01 05:10:44;;;;;;;6.13;3.00;;;;;;;;;;4994913;28;20026;-76
2023/06/01 05:13:11;;;;;;;8.10;3.38;;;;;;;;;;5008394;28;20116;-75
2023/06/01 05:15:48;;;;;;;5.32;3.40;;;;;;;;;;5007756;28;20030;-74
2023/06/01 05:18:14;;;;;;;5.97;3.25;;;;;;;;;;5012748;28;20052;-76
2023/06/01 05:20:39;;;;;;;5.13;3.28;;;;;;;;;;5001187;28;20172;-76
2023/06/01 05:23:05;;;;;;;8.52;3.15;;;;;;;;;;4999707;28;20033;-75
2023/06/01 05:25:31;;;;;;;9.15;4.30;;;;;;;;;;4990643;28;20618;-77
2023/06/01 05:27:56;;;;;;;4.55;2.92;;;;;;;;;;5014584;28;20055;-76
2023/06/01 05:30:25;;;;;;;8.43;3.45;;;;;;;;;;5007025;28;20034;-75
2023/06/01 05:32:50;;;;;;;4.82;3.20;;;;;;;;;;5014389;28;20597;-75
2023/06/01 05:35:16;;;;;;;6.93;3.67;;;;;;;;;;5012147;28;20033;-76
2023/06/01 05:37:42;;;;;;;11.07;3.85;;;;;;;;;;5009025;28;20681;-74
2023/06/01 05:40:09;;;;;;;6.90;4.38;;;;;;;;;;5004362;28;20123;-77
2023/06/01 05:42:35;;;;;;;9.00;3.30;;;;;;;;;;5010377;28;20097;-75
2023/06/01 05:45:16;;;;;;;11.18;3.58;;;;;;;;;;5013011;28;20084;-74
2023/06/01 05:47:42;;;;;;;7.20;3.43;;;;;;;;;;5011741;28;20045;-74
2023/06/01 05:50:08;;;;;;;9.85;5.28;;;;;;;;;;5002341;28;20291;-73
2023/06/01 05:52:34;;;;;;;10.02;3.75;;;;;;;;;;5014694;28;20437;-74
2023/06/01 05:55:00;;;;;;;8.73;3.55;;;;;;;;;;5005709;28;20076;-73
2023/06/01 05:57:25;;;;;;;7.65;3.22;;;;;;;;;;4999360;28;20487;-77
2023/06/01 05:59:53;;;;;;;8.27;4.07;;;;;;;;;;4992819;28;20041;-73
2023/06/01 06:02:19;;;;;;;6.38;3.22;;;;;;;;;;5005815;28;20056;-73
2023/06/01 06:04:46;;;;;;;4.57;2.97;;;;;;;;;;5007301;28;20052;-76
2023/06/01 06:07:11;;;;;;;8.50;3.33;;;;;;;;;;4992194;28;20405;-74
2023/06/01 06:09:37;;;;;;;10.40;3.72;;;;;;;;;;4998387;28;20040;-74
2023/06/01 06:12:03;;;;;;;15.05;3.90;;;;;;;;;;5005738;28;20489;-75
2023/06/01 06:14:29;;;;;;;11.00;4.40;;;;;;;;;;5003041;28;20619;-76
2023/06/01 06:16:55;;;;;;;6.43;3.13;;;;;;;;;;5002439;28;20037;-74
2023/06/01 06:19:20;;;;;;;9.55;4.85;;;;;;;;;;4998248;28;20046;-73
2023/06/01 06:21:46;;;;;;;11.40;4.82;;;;;;;;;;5002845;28;20087;-75
2023/06/01 06:24:13;;;;;;;13.05;4.25;;;;;;;;;;5005816;28;20466;-77
2023/06/01 06:26:39;;;;;;;8.45;3.80;;;;;;;;;;5008097;28;20037;-74
2023/06/01 06:29:05;;;;;;;5.97;3.35;;;;;;;;;;5008695;28;20026;-78
2023/06/01 06:31:30;;;;;;;11.18;4.50;;;;;;;;;;5006019;28;20475;-76
2023/06/01 06:33:56;;;;;;;13.15;3.88;;;;;;;;;;5007406;28;20029;-75
2023/06/01 06:36:22;;;;;;;8.70;3.83;;;;;;;;;;4992939;28;20041;-75
2023/06/01 06:38:47;;;;;;;9.10;3.35;;;;;;;;;;5001637;28;20172;-75
2023/06/01 06:41:13;;;;;;;6.55;3.65;;;;;;;;;;4994794;28;20036;-73
2023/06/01 06:43:39;;;;;;;7.47;3.65;;;;;;;;;;5000176;28;20072;-73
2023/06/01 06:46:04;;;;;;;12.93;4.35;;;;;;;;;;5005387;28;20046;-75
2023/06/01 06:48:30;;;;;;;9.85;3.95;;;;;;;;;;4978940;28;20422;-75
2023/06/01 06:50:56;;;;;;;12.70;3.60;;;;;;;;;;4981644;28;20144;-76
2023/06/01 06:53:22;;;;;;;9.85;8.48;;;;;;;;;;4994244;28;20034;-74
2023/06/01 06:55:47;;;;;;;15.35;4.50;;;;;;;;;;4995146;28;20603;-73
2023/06/01 06:58:13;;;;;;;8.75;3.17;;;;;;;;;;5004000;28;20049;-74
2023/06/01 07:00:40;;;;;;;9.48;3.90;;;;;;;;;;4993937;28;20454;-73
2023/06/01 07:03:07;;;;;;;8.95;3.30;;;;;;;;;;5002223;28;20034;-77
2023/06/01 07:05:32;;;;;;;8.77;3.97;;;;;;;;;;4949573;28;20655;-73
2023/06/01 07:07:59;;;;;;;6.95;3.83;;;;;;;;;;4985443;28;20037;-75
2023/06/01 07:10:28;;;;;;;13.57;4.05;;;;;;;;;;4985180;28;20124;-72
2023/06/01 07:12:57;;;;;;;12.07;3.80;;;;;;;;;;4992943;28;20052;-73
2023/06/01 07:15:25;;;;;;;11.68;3.33;;;;;;;;;;4991891;28;20054;-73
2023/06/01 07:17:53;;;;;;;7.70;3.67;;;;;;;;;;4994240;28;20566;-75
2023/06/01 07:20:19;;;;;;;13.98;3.80;;;;;;;;;;4989045;28;20076;-78
2023/06/01 07:22:45;;;;;;;6.55;3.55;;;;;;;;;;4989774;28;20030;-75
2023/06/01 07:25:13;;;;;;;5.80;3.25;;;;;;;;;;4994072;28;20053;-74
2023/06/01 07:27:45;;;;;;;11.85;4.20;;;;;;;;;;4993104;28;20379;-74
2023/06/01 07:30:36;;;;;;;8.45;3.80;;;;;;;;;;4988218;28;20038;-74
2023/06/01 07:33:07;;;;;;;7.20;3.08;;;;;;;;;;4989382;28;20121;-74
2023/06/01 07:35:33;;;;;;;7.20;3.30;;;;;;;;;;5000777;28;20425;-74
2023/06/01 07:38:00;;;;;;;20.45;4.25;;;;;;;;;;4999250;28;20029;-74
2023/06/01 07:40:26;;;;;;;11.05;4.13;;;;;;;;;;4977937;28;21302;-74
2023/06/01 07:42:51;;;;;;;7.30;3.80;;;;;;;;;;5001830;28;20029;-73
2023/06/01 07:45:17;;;;;;;8.93;3.25;;;;;;;;;;5006676;28;20459;-74
2023/06/01 07:47:43;;;;;;;19.92;12.75;;;;;;;;;;4999176;28;20068;-73
2023/06/01 07:50:09;;;;;;;7.53;3.28;;;;;;;;;;4989781;28;20136;-75
2023/06/01 07:52:35;;;;;;;8.18;2.83;;;;;;;;;;4989533;28;21052;-75
2023/06/01 07:55:00;;;;;;;9.05;3.42;;;;;;;;;;4995067;28;20077;-74
2023/06/01 07:57:27;;;;;;;8.20;3.45;;;;;;;;;;4990511;28;20741;-75
2023/06/01 08:00:01;;;;;;;8.48;3.90;;;;;;;;;;4974380;28;20438;-73
2023/06/01 08:02:27;;;;;;;14.38;3.85;;;;;;;;;;4995925;28;20036;-74
2023/06/01 08:04:56;;;;;;;7.20;3.47;;;;;;;;;;5002914;28;20021;-74
2023/06/01 08:07:27;;;;;;;12.95;3.30;;;;;;;;;;5002604;28;20486;-74
2023/06/01 08:09:53;;;;;;;7.35;4.00;;;;;;;;;;5008295;28;20036;-73
2023/06/01 08:12:19;;;;;;;8.52;3.67;;;;;;;;;;5003382;28;21063;-73
2023/06/01 08:14:44;;;;;;;13.77;2.97;;;;;;;;;;4994361;28;20061;-73
2023/06/01 08:17:11;;;;;;;9.27;3.15;;;;;;;;;;4994037;28;20032;-73
2023/06/01 08:19:37;;;;;;;9.10;3.05;;;;;;;;;;4992546;28;20697;-73
2023/06/01 08:22:05;;;;;;;6.47;3.50;;;;;;;;;;4989517;28;20034;-74
2023/06/01 08:24:32;;;;;;;12.85;3.33;;;;;;;;;;4991280;28;20438;-73
2023/06/01 08:26:59;;;;;;;7.72;2.90;;;;;;;;;;4950491;28;20042;-74
2023/06/01 08:29:25;;;;;;;5.88;2.85;;;;;;;;;;4970147;28;20559;-73
2023/06/01 08:31:51;;;;;;;7.32;3.17;;;;;;;;;;4974742;28;20034;-73
2023/06/01 08:34:20;;;;;;;11.15;4.70;;;;;;;;;;4973585;28;20041;-74
2023/06/01 08:36:45;;;;;;;10.00;2.95;;;;;;;;;;4988799;28;20053;-74
2023/06/01 08:39:25;;;;;;;11.70;4.30;;;;;;;;;;4974621;28;20031;-74
2023/06/01 08:42:11;;;;;;;6.63;2.83;;;;;;;;;;4969174;28;20479;-74
2023/06/01 08:44:39;;;;;;;9.60;2.90;;;;;;;;;;4976613;28;20056;-73
2023/06/01 08:47:05;;;;;;;10.13;4.03;;;;;;;;;;4974497;28;20068;-73
2023/06/01 08:49:32;;;;;;;7.15;2.90;;;;;;;;;;4972099;28;20030;-75
2023/06/01 08:52:02;;;;;;;10.43;3.33;;;;;;;;;;4971281;28;20040;-75
2023/06/01 08:54:30;;;;;;;13.38;4.88;;;;;;;;;;4981090;28;20022;-75
2023/06/01 08:56:59;;;;;;;15.10;3.60;;;;;;;;;;4975686;28;20022;-74
2023/06/01 08:59:31;;;;;;;4.82;2.25;;;;;;;;;;4972697;28;20112;-76
2023/06/01 09:01:58;;;;;;;4.65;2.60;;;;;;;;;;4990586;28;20030;-76
2023/06/01 09:04:23;;;;;;;4.82;2.55;;;;;;;;;;4977296;28;20048;-74
2023/06/01 09:06:49;;;;;;;13.65;2.92;;;;;;;;;;4993728;28;20060;-75
2023/06/01 09:09:17;;;;;;;8.35;2.50;;;;;;;;;;4998043;28;20509;-78
2023/06/01 09:11:45;;;;;;;10.10;3.38;;;;;;;;;;5000348;28;20034;-75
2023/06/01 09:14:26;;;;;;;7.28;2.80;;;;;;;;;;4978412;28;20038;-74
2023/06/01 09:16:53;;;;;;;8.73;3.92;;;;;;;;;;4983438;28;20169;-75
2023/06/01 09:19:20;;;;;;;10.00;2.78;;;;;;;;;;4979743;28;20751;-74
2023/06/01 09:21:59;;;;;;;8.40;2.80;;;;;;;;;;4979924;28;21344;-76
2023/06/01 09:24:26;;;;;;;9.93;3.00;;;;;;;;;;4981610;28;20034;-74
2023/06/01 09:27:00;;;;;;;4.43;2.45;;;;;;;;;;4985452;28;20497;-75
2023/06/01 09:29:27;;;;;;;3.70;2.17;;;;;;;;;;5000570;28;20037;-77
2023/06/01 09:31:54;;;;;;;10.50;2.80;;;;;;;;;;4997753;28;21926;-77
2023/06/01 09:34:21;;;;;;;6.68;2.67;;;;;;;;;;4988161;28;20029;-77
2023/06/01 09:36:51;;;;;;;7.53;2.65;;;;;;;;;;4978323;28;20033;-76
2023/06/01 09:39:21;;;;;;;4.15;2.15;;;;;;;;;;4990326;28;20031;-77
2023/06/01 09:41:53;;;;;;;10.63;2.80;;;;;;;;;;5004315;28;20084;-75
2023/06/01 09:44:39;;;;;;;9.15;2.88;;;;;;;;;;5006210;28;20022;-76
2023/06/01 09:47:12;;;;;;;5.20;2.38;;;;;;;;;;4989085;28;20030;-74
2023/06/01 09:49:44;;;;;;;7.47;2.20;;;;;;;;;;5000946;28;20042;-74
2023/06/01 09:52:19;;;;;;;8.52;2.92;;;;;;;;;;4991510;28;20034;-75
2023/06/01 09:55:23;;;;;;;3.63;2.17;;;;;;;;;;4987298;28;20542;-77
2023/06/01 09:57:49;;;;;;;4.10;2.53;;;;;;;;;;4940572;28;20069;-73
2023/06/01 10:00:26;;;;;;;10.23;2.47;;;;;;;;;;4960084;28;21160;-74
2023/06/01 10:03:02;;;;;;;7.47;2.55;;;;;;;;;;4950455;28;20403;-76
2023/06/01 10:05:29;;;;;;;3.47;2.72;;;;;;;;;;4967422;28;20042;-76
2023/06/01 10:08:07;;;;;;;7.80;2.60;;;;;;;;;;4969996;28;20416;-77
2023/06/01 10:10:38;;;;;;;4.57;2.03;;;;;;;;;;4968243;28;20074;-75
2023/06/01 10:13:08;;;;;;;6.25;2.25;;;;;;;;;;4967447;28;20026;-76
2023/06/01 10:16:26;;;;;;;6.40;3.10;;;;;;;;;;4970404;28;20031;-76
2023/06/01 10:18:53;;;;;;;8.13;2.45;;;;;;;;;;4939516;28;20035;-75
2023/06/01 10:21:26;;;;;;;10.50;2.85;;;;;;;;;;4969197;28;20035;-76
2023/06/01 10:24:21;;;;;;;8.93;2.57;;;;;;;;;;4971247;28;20411;-78
2023/06/01 10:27:15;;;;;;;3.15;2.10;;;;;;;;;;4971711;28;20483;-77
2023/06/01 10:30:01;;;;;;;10.25;2.60;;;;;;;;;;4978035;28;20087;-76
2023/06/01 10:32:36;;;;;;;9.05;3.58;;;;;;;;;;4978504;28;20027;-76
2023/06/01 10:35:06;;;;;;;5.32;2.25;;;;;;;;;;4974516;28;20042;-77
2023/06/01 10:37:38;;;;;;;6.97;3.28;;;;;;;;;;4976055;28;20042;-77
2023/06/01 10:40:22;;;;;;;6.80;2.38;;;;;;;;;;4967925;28;20057;-76
2023/06/01 10:42:49;;;;;;;8.02;2.33;;;;;;;;;;4956196;28;20137;-76
2023/06/01 10:45:34;;;;;;;7.07;3.42;;;;;;;;;;4956720;28;20042;-77
2023/06/01 10:48:10;;;;;;;6.47;2.67;;;;;;;;;;4948267;28;20027;-75
2023/06/01 10:50:38;;;;;;;8.05;3.22;;;;;;;;;;4961648;28;20073;-74
2023/06/01 10:53:25;;;;;;;4.72;2.58;;;;;;;;;;4957721;28;20023;-77
2023/06/01 10:56:23;;;;;;;8.43;3.15;;;;;;;;;;4959195;28;20051;-76
2023/06/01 10:59:09;;;;;;;6.28;2.40;;;;;;;;;;4959519;28;20030;-76
2023/06/01 11:01:43;;;;;;;6.28;2.40;;;;;;;;;;4960941;28;20166;-76
2023/06/01 11:04:08;;;;;;;6.63;2.60;;;;;;;;;;4956119;28;20042;-77
2023/06/01 11:06:37;;;;;;;8.88;2.50;;;;;;;;;;4939139;28;20452;-78
2023/06/01 11:09:10;;;;;;;9.02;2.72;;;;;;;;;;4954757;28;20062;-75
2023/06/01 11:11:57;;;;;;;8.80;2.58;;;;;;;;;;4956747;28;20039;-76
2023/06/01 11:14:26;;;;;;;6.78;2.78;;;;;;;;;;4956587;28;20030;-78
2023/06/01 11:16:54;;;;;;;4.22;2.88;;;;;;;;;;4957020;28;20038;-77
2023/06/01 11:19:40;;;;;;;4.38;2.10;;;;;;;;;;4957985;28;20142;-76
2023/06/01 11:22:06;;;;;;;5.40;2.33;;;;;;;;;;4958545;28;20484;-76
2023/06/01 11:24:37;;;;;;;6.97;2.75;;;;;;;;;;4958143;28;20086;-77
2023/06/01 11:27:08;;;;;;;4.50;2.72;;;;;;;;;;4960201;28;20046;-77
2023/06/01 11:29:34;;;;;;;4.80;2.35;;;;;;;;;;4958723;28;20110;-77
2023/06/01 11:32:03;;;;;;;5.18;2.15;;;;;;;;;;4957847;28;20336;-75
2023/06/01 11:34:41;;;;;;;4.30;2.47;;;;;;;;;;4961171;28;20238;-77
2023/06/01 11:37:18;;;;;;;5.40;2.38;;;;;;;;;;4971023;28;20039;-77
2023/06/01 11:39:47;;;;;;;9.57;2.50;;;;;;;;;;4983112;28;20027;-77
2023/06/01 11:42:21;;;;;;;5.25;2.40;;;;;;;;;;4974545;28;20030;-75
2023/06/01 11:45:02;;;;;;;3.83;2.42;;;;;;;;;;4967020;28;20034;-77
2023/06/01 11:47:31;;;;;;;9.40;2.30;;;;;;;;;;4973606;28;20034;-76
2023/06/01 11:50:02;;;;;;;11.07;2.42;;;;;;;;;;4975045;28;20035;-75
2023/06/01 11:52:29;;;;;;;5.15;2.85;;;;;;;;;;4974756;28;20115;-76
2023/06/01 11:55:02;;;;;;;6.05;2.33;;;;;;;;;;4974863;28;20058;-77
2023/06/01 11:57:28;;;;;;;4.63;2.30;;;;;;;;;;4976125;28;20038;-75
2023/06/01 11:59:59;;;;;;;5.30;2.42;;;;;;;;;;4969756;28;20172;-76
2023/06/01 12:02:26;;;;;;;5.15;2.17;;;;;;;;;;4976315;28;20026;-77
2023/06/01 12:05:08;;;;;;;7.90;2.45;;;;;;;;;;4979237;28;20042;-77
2023/06/01 12:07:48;;;;;;;3.70;2.13;;;;;;;;;;4982547;28;20045;-76
2023/06/01 12:10:16;;;;;;;4.88;1.98;;;;;;;;;;4978074;28;20050;-75
2023/06/01 12:12:47;;;;;;;7.38;3.47;;;;;;;;;;4979168;28;20047;-75
2023/06/01 12:15:20;;;;;;;3.33;1.83;;;;;;;;;;4994781;28;20034;-77
2023/06/01 12:17:51;;;;;;;8.65;2.75;;;;;;;;;;4978577;28;20031;-75
2023/06/01 12:20:30;;;;;;;;;;;;;;;;;;4980833;28;20061;-75
2023/06/01 12:22:58;;;;;;;4.30;2.00;;;;;;;;;;4996005;28;19924;-77
2023/06/01 12:25:26;;;;;;;8.20;2.80;;;;;;;;;;4977852;28;20050;-77
2023/06/01 12:28:10;;;;;;;2.85;2.20;;;;;;;;;;4979014;28;20038;-74
2023/06/01 12:30:37;;;;;;;5.03;2.00;;;;;;;;;;4961910;28;20035;-75
2023/06/01 12:33:04;;;;;;;8.10;3.05;;;;;;;;;;4979211;28;20038;-77
2023/06/01 12:35:32;;;;;;;4.90;2.78;;;;;;;;;;4980686;28;20030;-73
2023/06/01 12:38:12;;;;;;;5.72;2.25;;;;;;;;;;4976946;28;20117;-75
2023/06/01 12:40:39;;;;;;;9.20;2.22;;;;;;;;;;4974501;28;20106;-76
2023/06/01 12:43:05;;;;;;;5.38;2.05;;;;;;;;;;4981208;28;20032;-75
2023/06/01 12:45:38;;;;;;;10.02;3.22;;;;;;;;;;4978756;28;20029;-75
2023/06/01 12:48:07;;;;;;;4.90;2.45;;;;;;;;;;4976130;28;20050;-75
2023/06/01 12:50:34;;;;;;;6.15;1.83;;;;;;;;;;4975305;28;20046;-75
2023/06/01 12:53:02;;;;;;;5.97;2.28;;;;;;;;;;4968157;28;20086;-76
2023/06/01 12:55:28;;;;;;;3.40;1.83;;;;;;;;;;4970993;28;20055;-77
2023/06/01 12:58:00;;;;;;;3.47;2.03;;;;;;;;;;4974228;28;20054;-77
2023/06/01 13:00:27;;;;;;;5.38;1.98;;;;;;;;;;4968966;28;20028;-76
2023/06/01 13:02:54;;;;;;;19.08;3.92;;;;;;;;;;4975869;28;20041;-78
2023/06/01 13:05:25;;;;;;;3.83;2.30;;;;;;;;;;4978880;28;20030;-76
2023/06/01 13:08:00;;;;;;;6.68;2.10;;;;;;;;;;4979426;28;20030;-76
2023/06/01 13:10:31;;;;;;;4.43;2.20;;;;;;;;;;4971940;28;20038;-76
2023/06/01 13:12:57;;;;;;;5.57;2.20;;;;;;;;;;4977274;28;20084;-75
2023/06/01 13:15:23;;;;;;;7.68;2.72;;;;;;;;;;4977384;28;20180;-78
2023/06/01 13:17:50;;;;;;;9.95;2.30;;;;;;;;;;4976896;28;20519;-76
2023/06/01 13:20:19;;;;;;;5.78;2.60;;;;;;;;;;4981202;28;20447;-78
2023/06/01 13:22:44;;;;;;;3.35;2.13;;;;;;;;;;4976067;28;20034;-74
2023/06/01 13:25:10;;;;;;;3.47;1.88;;;;;;;;;;4977118;28;20094;-77
2023/06/01 13:27:36;;;;;;;7.32;2.75;;;;;;;;;;4977410;28;20027;-75
2023/06/01 13:30:28;;;;;;;7.03;2.42;;;;;;;;;;4961859;28;20042;-75
2023/06/01 13:32:57;;;;;;;6.75;2.20;;;;;;;;;;4972976;28;20444;-77
2023/06/01 13:35:23;;;;;;;9.15;2.42;;;;;;;;;;4973626;28;20019;-77
2023/06/01 13:37:49;;;;;;;5.60;2.20;;;;;;;;;;4973184;28;20038;-77
2023/06/01 13:40:18;;;;;;;5.18;2.35;;;;;;;;;;4976808;28;20069;-75
2023/06/01 13:42:47;;;;;;;3.63;2.42;;;;;;;;;;4969477;28;20027;-79
2023/06/01 13:45:15;;;;;;;6.05;2.80;;;;;;;;;;4975949;28;20030;-78
2023/06/01 13:47:41;;;;;;;6.85;2.83;;;;;;;;;;4978238;28;20113;-78
2023/06/01 13:50:07;;;;;;;4.45;1.95;;;;;;;;;;4977229;28;20507;-77
2023/06/01 13:52:34;;;;;;;5.50;2.35;;;;;;;;;;4976270;28;20078;-77
2023/06/01 13:55:00;;;;;;;5.78;2.33;;;;;;;;;;4991535;28;20038;-77
2023/06/01 13:57:26;;;;;;;6.88;2.80;;;;;;;;;;4995915;28;20057;-78
2023/06/01 13:59:52;;;;;;;3.97;2.40;;;;;;;;;;4996449;28;20111;-78
2023/06/01 14:02:20;;;;;;;6.07;2.90;;;;;;;;;;5015071;28;20029;-77
2023/06/01 14:04:46;;;;;;;5.85;3.08;;;;;;;;;;4996890;28;20041;-76
2023/06/01 14:07:13;;;;;;;7.20;2.90;;;;;;;;;;4997467;28;20140;-77
2023/06/01 14:09:40;;;;;;;2.83;2.22;;;;;;;;;;5008663;28;20128;-76
2023/06/01 14:12:11;;;;;;;6.40;2.17;;;;;;;;;;5001957;28;20026;-76
2023/06/01 14:14:47;;;;;;;7.25;2.40;;;;;;;;;;5017199;28;20028;-75
2023/06/01 14:17:16;;;;;;;3.90;2.30;;;;;;;;;;5017149;28;20409;-76
2023/06/01 14:19:52;;;;;;;3.25;2.13;;;;;;;;;;5019707;28;20022;-76
2023/06/01 14:22:20;;;;;;;4.32;2.58;;;;;;;;;;4983192;28;20033;-77
2023/06/01 14:24:47;;;;;;;8.27;3.25;;;;;;;;;;4995627;28;20041;-75
2023/06/01 14:27:13;;;;;;;5.07;2.72;;;;;;;;;;4991176;28;20033;-77
2023/06/01 14:29:42;;;;;;;5.72;2.88;;;;;;;;;;4998175;28;20083;-76
2023/06/01 14:32:08;;;;;;;6.75;2.38;;;;;;;;;;4995117;28;20030;-77
2023/06/01 14:34:35;;;;;;;4.35;2.50;;;;;;;;;;4999158;28;20459;-76
2023/06/01 14:37:04;;;;;;;4.75;2.00;;;;;;;;;;4995066;28;20034;-78
2023/06/01 14:39:31;;;;;;;8.18;2.35;;;;;;;;;;5010668;28;20581;-77
2023/06/01 14:41:56;;;;;;;8.65;2.60;;;;;;;;;;5015531;28;20415;-77
2023/06/01 14:44:33;;;;;;;11.90;2.70;;;;;;;;;;4997975;28;20053;-77
2023/06/01 14:46:59;;;;;;;4.30;2.30;;;;;;;;;;4999186;28;20382;-77
2023/06/01 14:49:26;;;;;;;6.15;2.05;;;;;;;;;;4997210;28;20032;-77
2023/06/01 14:51:52;;;;;;;6.40;2.60;;;;;;;;;;5017017;28;20121;-76
2023/06/01 14:54:18;;;;;;;6.07;1.85;;;;;;;;;;4998976;28;20169;-77
2023/06/01 14:56:45;;;;;;;4.75;2.33;;;;;;;;;;5016492;28;20050;-77